NCAR-RAP Real-Time Weather Data

Output produced by METARs form (14 October 2019  22:33 UTC)
found at http://weather.rap.ucar.edu/surface/
 
KBGR 142226Z 14007KT 10SM BKN013 BKN017 OVC024 13/11 A2994 RMK AO2 T01330111
KBGR 142153Z 15006KT 10SM FEW014 BKN018 OVC024 14/11 A2995 RMK AO2 SLP140 T01390111
KBGR 142053Z 19007KT 10SM BKN017 BKN029 OVC037 14/11 A2995 RMK AO2 SLP142 T01390111 56009
KBGR 141953Z 19006KT 10SM FEW014 BKN022 OVC032 14/12 A2995 RMK AO2 SLP142 T01440117
KBGR 141937Z 19008KT 10SM FEW014 BKN022 OVC032 14/12 A2995 RMK AO2 T01440117